Time;durP1;ratioP1;P1;durP2;ratioP2;P2;SDS_P1;SDS_P2;PMS_P1;PMS_P2;Temp;Humidity;BMP_temperature;BMP_pressure;BME280_temperature;BME280_humidity;BME280_pressure;Samples;Min_cycle;Max_cycle;Signal;HPM_P1;HPM_P2
2023/05/22 00:00:43;;;;;;;192.57;138.27;;;435.80;2355.20;;;;;;5094941;28;20024;-73
2023/05/22 00:03:09;;;;;;;187.68;134.18;;;435.80;2355.20;;;;;;5095316;28;20020;-71
2023/05/22 00:05:39;;;;;;;168.60;122.63;;;435.80;2355.20;;;;;;5095262;28;20474;-72
2023/05/22 00:08:10;;;;;;;172.63;123.20;;;;;;;;;;5095116;28;20036;-77
2023/05/22 00:10:37;;;;;;;177.98;127.15;;;435.80;2355.20;;;;;;5095066;28;20023;-76
2023/05/22 00:13:03;;;;;;;164.55;120.90;;;435.80;2355.20;;;;;;5095132;28;20028;-73
2023/05/22 00:15:29;;;;;;;167.07;123.18;;;435.80;2355.20;;;;;;5094645;28;20037;-73
2023/05/22 00:17:54;;;;;;;167.32;121.30;;;435.70;2355.20;;;;;;5094965;28;20112;-71
2023/05/22 00:20:20;;;;;;;158.15;112.22;;;435.70;2355.20;;;;;;5095007;28;20462;-72
2023/05/22 00:22:47;;;;;;;137.02;95.93;;;435.70;2355.20;;;;;;5094852;28;20024;-72
2023/05/22 00:25:17;;;;;;;98.00;68.43;;;435.60;2355.20;;;;;;5094789;28;20012;-72
2023/05/22 00:27:42;;;;;;;64.43;46.13;;;435.30;2355.20;;;;;;5094666;28;20035;-72
2023/05/22 00:30:09;;;;;;;36.08;25.35;;;435.30;2355.20;;;;;;5093977;28;20099;-72
2023/05/22 00:32:34;;;;;;;25.35;13.55;;;435.20;2355.20;;;;;;5094703;28;20032;-72
2023/05/22 00:35:00;;;;;;;32.03;15.02;;;410.50;2355.20;;;;;;5094465;28;20047;-71
2023/05/22 00:37:26;;;;;;;26.77;16.58;;;410.50;2355.20;;;;;;5094510;28;20099;-71
2023/05/22 00:39:52;;;;;;;28.70;15.55;;;410.50;2355.20;;;;;;5094547;28;20024;-72
2023/05/22 00:42:17;;;;;;;25.40;14.55;;;410.40;2355.20;;;;;;5094497;28;20106;-72
2023/05/22 00:44:43;;;;;;;23.05;12.75;;;410.50;2355.20;;;;;;5094207;28;20032;-71
2023/05/22 00:47:09;;;;;;;27.52;13.55;;;410.50;2355.20;;;;;;5094265;28;20101;-72
2023/05/22 00:49:35;;;;;;;20.48;12.45;;;410.30;2355.20;;;;;;5094495;28;20444;-72
2023/05/22 00:52:01;;;;;;;21.48;12.65;;;410.30;2355.20;;;;;;5094588;28;20106;-72
2023/05/22 00:54:29;;;;;;;22.80;12.48;;;410.30;2355.20;;;;;;5094272;28;20020;-72
2023/05/22 00:56:56;;;;;;;21.98;12.05;;;410.40;2355.20;;;;;;5094291;28;20071;-73
2023/05/22 00:59:22;;;;;;;21.35;13.27;;;410.40;2355.20;;;;;;5094195;28;20441;-76
2023/05/22 01:01:48;;;;;;;23.40;11.40;;;410.40;2355.20;;;;;;5093897;28;20126;-71
2023/05/22 01:04:14;;;;;;;21.77;11.82;;;410.40;2355.20;;;;;;5094290;28;20432;-72
2023/05/22 01:06:40;;;;;;;22.55;12.05;;;410.40;2355.20;;;;;;5094003;28;20016;-72
2023/05/22 01:09:06;;;;;;;20.13;12.35;;;410.30;2355.20;;;;;;5093995;28;20031;-72
2023/05/22 01:11:32;;;;;;;21.08;11.15;;;410.30;2355.20;;;;;;5094121;28;20020;-71
2023/05/22 01:14:10;;;;;;;21.85;12.23;;;410.40;2355.20;;;;;;5093854;28;20035;-72
2023/05/22 01:17:21;;;;;;;21.48;11.57;;;410.40;2355.20;;;;;;5093849;28;20385;-72
2023/05/22 01:20:08;;;;;;;20.67;11.57;;;410.50;2355.20;;;;;;5031627;28;20029;-72
2023/05/22 01:22:57;;;;;;;18.52;11.07;;;410.40;2355.20;;;;;;5031643;28;20025;-72
2023/05/22 01:25:34;;;;;;;19.75;12.48;;;410.30;2355.20;;;;;;5031534;28;20021;-72
2023/05/22 01:28:21;;;;;;;16.42;12.35;;;410.30;2355.20;;;;;;5031392;28;20550;-72
2023/05/22 01:31:00;;;;;;;17.25;10.90;;;410.20;2355.20;;;;;;5031222;28;20133;-71
2023/05/22 01:33:30;;;;;;;20.10;11.82;;;410.20;2355.20;;;;;;5031254;28;20038;-72
2023/05/22 01:35:58;;;;;;;25.13;12.23;;;410.20;2355.20;;;;;;5031338;28;20515;-72
2023/05/22 01:38:24;;;;;;;18.58;11.50;;;410.20;2355.20;;;;;;5031362;28;20104;-71
2023/05/22 01:40:50;;;;;;;25.50;14.88;;;410.30;2355.20;;;;;;5030683;28;20141;-71
2023/05/22 01:43:17;;;;;;;21.67;13.95;;;410.30;2355.20;;;;;;5031295;28;20036;-72
2023/05/22 01:45:43;;;;;;;22.77;14.27;;;410.30;2355.20;;;;;;5030948;28;20431;-72
2023/05/22 01:48:08;;;;;;;23.55;12.25;;;410.40;2355.20;;;;;;5031327;28;20157;-77
2023/05/22 01:50:34;;;;;;;22.55;13.93;;;410.30;2355.20;;;;;;5031258;28;20116;-71
2023/05/22 01:53:17;;;;;;;32.90;15.18;;;410.30;2355.20;;;;;;5047353;28;20089;-72
2023/05/22 01:55:50;;;;;;;23.40;13.13;;;410.30;2355.20;;;;;;5092608;28;20091;-73
2023/05/22 01:58:44;;;;;;;28.63;14.18;;;410.30;2355.20;;;;;;5090393;28;20016;-76
2023/05/22 02:01:12;;;;;;;21.77;13.70;;;410.30;2355.20;;;;;;5091445;28;20036;-72
2023/05/22 02:03:39;;;;;;;21.63;11.50;;;410.30;2355.20;;;;;;5092322;28;20035;-73
2023/05/22 02:06:08;;;;;;;24.08;11.55;;;410.40;2355.20;;;;;;5092405;28;20047;-71
2023/05/22 02:08:37;;;;;;;20.85;12.02;;;410.30;2355.20;;;;;;5090012;28;20024;-72
2023/05/22 02:11:04;;;;;;;16.35;10.73;;;410.30;2355.20;;;;;;5092312;28;20016;-77
2023/05/22 02:13:30;;;;;;;20.15;12.05;;;410.30;2355.20;;;;;;5092202;28;20058;-72
2023/05/22 02:15:57;;;;;;;17.50;12.52;;;410.30;2355.20;;;;;;5092161;28;20024;-72
2023/05/22 02:18:30;;;;;;;17.35;11.38;;;410.20;2355.20;;;;;;5092302;28;20065;-71
2023/05/22 02:20:58;;;;;;;21.38;12.55;;;410.20;2355.20;;;;;;5092195;28;20437;-72
2023/05/22 02:23:25;;;;;;;22.73;14.32;;;410.30;2355.20;;;;;;5092231;28;20415;-77
2023/05/22 02:25:50;;;;;;;19.35;13.63;;;410.30;2355.20;;;;;;5092071;28;20373;-72
2023/05/22 02:28:17;;;;;;;24.50;13.18;;;410.20;2355.20;;;;;;5092129;28;20028;-77
2023/05/22 02:30:42;;;;;;;24.08;12.90;;;410.20;2355.20;;;;;;5074057;28;20382;-74
2023/05/22 02:33:08;;;;;;;20.35;13.98;;;410.40;2355.20;;;;;;5091938;28;20028;-72
2023/05/22 02:35:34;;;;;;;27.77;15.07;;;410.40;2355.20;;;;;;5089483;28;20016;-72
2023/05/22 02:38:00;;;;;;;22.40;14.65;;;410.40;2355.20;;;;;;5092004;28;20374;-72
2023/05/22 02:40:26;;;;;;;20.90;15.77;;;410.40;2355.20;;;;;;5091995;28;20020;-72
2023/05/22 02:42:51;;;;;;;17.95;13.95;;;410.30;2355.20;;;;;;5091956;28;20508;-77
2023/05/22 02:45:17;;;;;;;21.58;15.38;;;410.30;2355.20;;;;;;5091968;28;20028;-72
2023/05/22 02:47:43;;;;;;;25.70;15.55;;;410.40;2355.20;;;;;;5091910;28;20028;-72
2023/05/22 02:50:09;;;;;;;20.55;15.35;;;410.30;2355.20;;;;;;5092005;28;20054;-71
2023/05/22 02:52:35;;;;;;;26.77;16.95;;;410.30;2355.20;;;;;;5093881;28;20497;-74
2023/05/22 02:55:03;;;;;;;25.65;15.20;;;410.30;2355.20;;;;;;5095800;28;20017;-72
2023/05/22 02:57:29;;;;;;;26.48;17.70;;;410.20;2355.20;;;;;;5095433;28;20024;-72
2023/05/22 02:59:56;;;;;;;27.55;17.35;;;410.20;2355.20;;;;;;5096427;28;20028;-78
2023/05/22 03:02:25;;;;;;;24.77;16.08;;;410.20;2355.20;;;;;;5096065;28;20024;-72
2023/05/22 03:04:50;;;;;;;29.77;16.50;;;410.00;2355.20;;;;;;5096178;28;20043;-72
2023/05/22 03:07:16;;;;;;;29.73;16.45;;;410.00;2355.20;;;;;;5095963;28;20067;-73
2023/05/22 03:09:41;;;;;;;20.77;14.88;;;410.00;2355.20;;;;;;5096133;28;20031;-72
2023/05/22 03:12:08;;;;;;;23.50;14.77;;;410.00;2355.20;;;;;;5095857;28;20672;-72
2023/05/22 03:14:34;;;;;;;24.65;14.50;;;410.00;2355.20;;;;;;5095946;28;20107;-77
2023/05/22 03:16:59;;;;;;;20.60;15.27;;;410.00;2355.20;;;;;;5095605;28;20063;-71
2023/05/22 03:19:25;;;;;;;25.17;15.75;;;410.00;2355.20;;;;;;5096046;28;20027;-73
2023/05/22 03:21:51;;;;;;;22.45;15.02;;;410.10;2355.20;;;;;;5095725;28;20354;-77
2023/05/22 03:24:17;;;;;;;22.15;15.18;;;410.00;2355.20;;;;;;5095874;28;20031;-71
2023/05/22 03:26:42;;;;;;;33.03;15.27;;;409.90;2355.20;;;;;;5095443;28;20032;-72
2023/05/22 03:29:08;;;;;;;20.33;12.75;;;409.90;2355.20;;;;;;5095681;28;20032;-73
2023/05/22 03:31:35;;;;;;;21.95;13.05;;;409.90;2355.20;;;;;;5095032;28;20100;-78
2023/05/22 03:34:01;;;;;;;32.45;14.45;;;409.70;2355.20;;;;;;5095383;28;20052;-73
2023/05/22 03:36:28;;;;;;;23.52;13.38;;;409.70;2355.20;;;;;;5095591;28;20103;-73
2023/05/22 03:38:54;;;;;;;23.08;14.23;;;409.60;2355.20;;;;;;5095355;28;20012;-72
2023/05/22 03:41:20;;;;;;;28.75;14.15;;;409.60;2355.20;;;;;;5095411;28;20020;-73
2023/05/22 03:43:45;;;;;;;21.95;13.75;;;384.90;2329.60;;;;;;5095135;28;20035;-74
2023/05/22 03:46:11;;;;;;;24.33;13.00;;;384.90;2329.60;;;;;;5095468;28;20052;-78
2023/05/22 03:48:38;;;;;;;20.40;11.63;;;384.70;2329.60;;;;;;5095172;28;20024;-74
2023/05/22 03:51:04;;;;;;;29.35;14.25;;;384.70;2329.60;;;;;;5095000;28;20035;-73
2023/05/22 03:53:29;;;;;;;21.50;12.50;;;384.70;2329.60;;;;;;5081890;28;20016;-73
2023/05/22 03:55:56;;;;;;;23.65;13.52;;;384.90;2329.60;;;;;;5095133;28;20035;-73
2023/05/22 03:58:24;;;;;;;26.35;14.57;;;384.70;2329.60;;;;;;5095187;28;20096;-73
2023/05/22 04:00:54;;;;;;;25.60;14.88;;;384.90;2329.60;;;;;;5094964;28;20051;-73
2023/05/22 04:03:20;;;;;;;27.98;15.85;;;384.90;2329.60;;;;;;5094273;28;20537;-73
2023/05/22 04:05:46;;;;;;;20.75;13.77;;;384.90;2329.60;;;;;;5094708;28;20115;-73
2023/05/22 04:08:12;;;;;;;27.35;16.05;;;409.70;2355.20;;;;;;5094985;28;20036;-73
2023/05/22 04:10:37;;;;;;;28.50;15.07;;;409.70;2355.20;;;;;;5094813;28;20027;-73
2023/05/22 04:13:04;;;;;;;20.92;14.18;;;409.70;2355.20;;;;;;5094826;28;20058;-74
2023/05/22 04:15:32;;;;;;;23.20;15.13;;;409.90;2355.20;;;;;;5094946;28;20371;-73
2023/05/22 04:18:01;;;;;;;24.45;15.70;;;409.70;2355.20;;;;;;5094767;28;20020;-73
2023/05/22 04:20:26;;;;;;;33.53;16.00;;;409.90;2355.20;;;;;;5094563;28;20100;-73
2023/05/22 04:22:55;;;;;;;22.98;14.90;;;409.90;2355.20;;;;;;5094888;28;20492;-73
2023/05/22 04:25:21;;;;;;;24.67;14.82;;;409.90;2355.20;;;;;;5094375;28;20099;-73
2023/05/22 04:27:49;;;;;;;22.13;14.30;;;409.90;2355.20;;;;;;5094626;28;20522;-73
2023/05/22 04:30:16;;;;;;;25.90;15.23;;;410.10;2355.20;;;;;;5094191;28;20023;-74
2023/05/22 04:32:42;;;;;;;32.75;15.13;;;410.10;2355.20;;;;;;5094515;28;20053;-73
2023/05/22 04:35:09;;;;;;;17.98;14.13;;;410.20;2355.20;;;;;;5094383;28;20044;-73
2023/05/22 04:37:35;;;;;;;18.77;14.73;;;410.20;2355.20;;;;;;5075637;28;20051;-73
2023/05/22 04:40:06;;;;;;;24.73;14.10;;;410.50;2355.20;;;;;;5094476;28;20020;-73
2023/05/22 04:42:33;;;;;;;28.77;15.68;;;410.50;2355.20;;;;;;5094138;28;20024;-73
2023/05/22 04:44:59;;;;;;;26.35;15.10;;;435.20;2355.20;;;;;;5094329;28;20107;-72
2023/05/22 04:47:30;;;;;;;22.63;14.60;;;435.20;2355.20;;;;;;5093728;28;20036;-73
2023/05/22 04:50:02;;;;;;;22.42;14.48;;;435.30;2355.20;;;;;;5094073;28;20012;-72
2023/05/22 04:52:28;;;;;;;28.58;16.45;;;435.30;2355.20;;;;;;5075921;28;20075;-73
2023/05/22 04:54:54;;;;;;;26.23;15.13;;;435.40;2355.20;;;;;;5093801;28;20044;-76
2023/05/22 04:57:20;;;;;;;21.70;16.17;;;435.50;2329.60;;;;;;5094145;28;20450;-78
2023/05/22 04:59:47;;;;;;;24.35;16.33;;;435.60;2329.60;;;;;;5093650;28;20016;-73
2023/05/22 05:02:13;;;;;;;21.75;16.67;;;435.60;2355.20;;;;;;5094041;28;20020;-73
2023/05/22 05:04:39;;;;;;;26.40;18.02;;;435.70;2355.20;;;;;;5093631;28;20017;-73
2023/05/22 05:07:05;;;;;;;25.23;17.15;;;435.90;2355.20;;;;;;5093677;28;20036;-73
2023/05/22 05:09:31;;;;;;;24.58;17.38;;;435.90;2355.20;;;;;;5093690;28;20012;-77
2023/05/22 05:11:57;;;;;;;25.38;18.05;;;436.00;2355.20;;;;;;5093571;28;20027;-73
2023/05/22 05:14:23;;;;;;;21.63;17.40;;;436.10;2355.20;;;;;;5093633;28;20059;-78
2023/05/22 05:16:50;;;;;;;24.00;17.20;;;435.90;2355.20;;;;;;5093345;28;20466;-73
2023/05/22 05:19:19;;;;;;;22.15;18.27;;;460.80;2201.60;;;;;;5093689;28;20386;-73
2023/05/22 05:21:46;;;;;;;19.80;16.38;;;460.90;2124.80;;;;;;5093475;28;20024;-73
2023/05/22 05:24:11;;;;;;;40.20;16.05;;;461.00;2022.40;;;;;;5093989;28;20362;-73
2023/05/22 05:26:37;;;;;;;24.73;15.50;;;461.10;2380.80;;;;;;5095011;28;20036;-73
2023/05/22 05:29:03;;;;;;;25.70;14.85;;;461.20;2380.80;;;;;;5101987;28;20020;-72
2023/05/22 05:31:29;;;;;;;17.20;13.23;;;461.40;2380.80;;;;;;5096558;28;20492;-73
2023/05/22 05:33:56;;;;;;;20.45;12.63;;;461.40;2380.80;;;;;;5100614;28;20051;-73
2023/05/22 05:36:24;;;;;;;19.05;12.55;;;461.50;2380.80;;;;;;5102894;28;20035;-72
2023/05/22 05:38:50;;;;;;;17.08;12.90;;;461.70;2380.80;;;;;;5106637;28;20432;-74
2023/05/22 05:41:15;;;;;;;16.63;13.55;;;461.70;2380.80;;;;;;5098491;28;20032;-72
2023/05/22 05:43:41;;;;;;;18.13;14.43;;;486.40;2380.80;;;;;;5095959;28;20070;-73
2023/05/22 05:46:07;;;;;;;19.45;13.35;;;486.50;2380.80;;;;;;5096525;28;20462;-73
2023/05/22 05:48:32;;;;;;;29.45;13.60;;;486.60;2380.80;;;;;;5105733;28;20081;-72
2023/05/22 05:50:58;;;;;;;14.75;11.85;;;486.70;2380.80;;;;;;5104074;28;20435;-72
2023/05/22 05:53:24;;;;;;;20.52;12.90;;;486.70;2380.80;;;;;;5106257;28;20030;-72
2023/05/22 05:55:50;;;;;;;17.65;9.88;;;486.80;2380.80;;;;;;5105223;27;20050;-72
2023/05/22 05:58:16;;;;;;;14.00;10.55;;;486.80;2380.80;;;;;;5099585;28;20056;-72
2023/05/22 06:00:41;;;;;;;14.25;10.20;;;487.00;2380.80;;;;;;5100681;28;20515;-72
2023/05/22 06:03:07;;;;;;;13.80;9.38;;;487.00;2380.80;;;;;;5099292;28;20059;-71
2023/05/22 06:05:33;;;;;;;16.05;9.77;;;487.20;2380.80;;;;;;5101724;28;20477;-72
2023/05/22 06:07:58;;;;;;;16.45;8.95;;;487.30;2380.80;;;;;;5101149;28;20493;-71
2023/05/22 06:10:24;;;;;;;12.32;8.70;;;487.30;2380.80;;;;;;5098953;28;20026;-72
2023/05/22 06:12:50;;;;;;;14.48;8.02;;;512.00;2380.80;;;;;;5101950;28;20447;-71
2023/05/22 06:15:16;;;;;;;12.93;7.70;;;512.10;2380.80;;;;;;5101186;28;20074;-72
2023/05/22 06:17:42;;;;;;;16.13;8.05;;;512.20;2380.80;;;;;;5101042;28;20058;-71
2023/05/22 06:20:08;;;;;;;12.93;8.50;;;512.30;2380.80;;;;;;5099583;28;20469;-72
2023/05/22 06:22:34;;;;;;;14.70;7.28;;;512.40;2380.80;;;;;;5098111;28;20032;-72
2023/05/22 06:25:00;;;;;;;8.95;6.20;;;512.60;2380.80;;;;;;5096838;28;20103;-72
2023/05/22 06:27:28;;;;;;;8.55;6.90;;;512.70;2380.80;;;;;;5099965;28;20169;-72
2023/05/22 06:29:54;;;;;;;12.00;6.28;;;512.90;2380.80;;;;;;5104471;28;20111;-72
2023/05/22 06:32:20;;;;;;;12.05;5.78;;;512.90;2380.80;;;;;;5100912;28;20073;-72
2023/05/22 06:34:47;;;;;;;9.40;6.35;;;537.70;2406.40;;;;;;5087400;28;20092;-73
2023/05/22 06:37:13;;;;;;;11.20;5.85;;;537.70;2406.40;;;;;;5085824;28;20034;-73
2023/05/22 06:39:39;;;;;;;10.88;6.78;;;537.80;2406.40;;;;;;5082007;28;20103;-74
2023/05/22 06:42:05;;;;;;;10.02;5.97;;;537.90;2406.40;;;;;;5083959;28;20032;-73
2023/05/22 06:44:31;;;;;;;9.50;6.07;;;538.00;2406.40;;;;;;5080045;28;20031;-71
2023/05/22 06:46:56;;;;;;;8.65;6.20;;;538.10;2406.40;;;;;;5080622;28;20044;-71
2023/05/22 06:49:22;;;;;;;10.75;6.25;;;538.20;2406.40;;;;;;5080256;28;20016;-71
2023/05/22 06:51:48;;;;;;;7.57;5.82;;;538.20;2406.40;;;;;;5082914;28;20035;-71
2023/05/22 06:54:14;;;;;;;10.55;6.15;;;538.20;2406.40;;;;;;5077123;28;20024;-71
2023/05/22 06:56:44;;;;;;;11.15;5.90;;;538.40;2406.40;;;;;;5080043;28;20024;-71
2023/05/22 06:59:12;;;;;;;14.30;6.07;;;538.40;2406.40;;;;;;5083501;28;20099;-71
2023/05/22 07:01:38;;;;;;;13.45;6.22;;;538.50;2406.40;;;;;;5081545;28;20095;-74
2023/05/22 07:04:04;;;;;;;10.30;6.75;;;563.20;2432.00;;;;;;5086797;28;20067;-72
2023/05/22 07:06:37;;;;;;;14.93;6.43;;;563.30;2432.00;;;;;;5081659;28;20428;-72
2023/05/22 07:09:04;;;;;;;8.18;6.13;;;563.40;2432.00;;;;;;5086521;28;20102;-71
2023/05/22 07:11:30;;;;;;;10.45;6.95;;;563.50;2432.00;;;;;;5080840;28;20133;-71
2023/05/22 07:13:56;;;;;;;10.38;6.40;;;563.60;2432.00;;;;;;5081597;28;20028;-73
2023/05/22 07:16:22;;;;;;;15.18;6.78;;;563.60;2432.00;;;;;;5079225;28;20388;-70
2023/05/22 07:18:48;;;;;;;14.40;7.50;;;563.60;2432.00;;;;;;5083424;28;20032;-71
2023/05/22 07:21:14;;;;;;;8.27;6.55;;;563.70;2432.00;;;;;;5078327;28;20044;-75
2023/05/22 07:23:39;;;;;;;14.32;7.45;;;563.70;2432.00;;;;;;5078043;28;20025;-72
2023/05/22 07:26:06;;;;;;;14.63;8.25;;;563.90;2432.00;;;;;;5080383;28;20032;-72
2023/05/22 07:28:32;;;;;;;16.30;7.90;;;563.90;2432.00;;;;;;5083424;28;20036;-73
2023/05/22 07:30:58;;;;;;;10.98;7.10;;;563.90;2432.00;;;;;;5082298;28;20046;-72
2023/05/22 07:33:24;;;;;;;11.35;7.60;;;563.90;2432.00;;;;;;5093901;28;20481;-74
2023/05/22 07:35:50;;;;;;;9.82;7.03;;;;;;;;;;5098805;28;20147;-74
2023/05/22 07:38:17;;;;;;;13.27;7.82;;;564.10;2432.00;;;;;;5100349;28;20080;-76
2023/05/22 07:40:42;;;;;;;16.75;7.82;;;588.80;2432.00;;;;;;5097652;28;20027;-73
2023/05/22 07:43:08;;;;;;;17.45;8.95;;;588.80;2432.00;;;;;;5098630;28;20424;-72
2023/05/22 07:45:34;;;;;;;9.52;6.72;;;588.90;2432.00;;;;;;5097046;28;20024;-72
2023/05/22 07:48:02;;;;;;;13.05;6.85;;;588.90;2432.00;;;;;;5097460;28;20114;-73
2023/05/22 07:50:29;;;;;;;11.25;7.85;;;588.90;2432.00;;;;;;5098816;28;20024;-74
2023/05/22 07:52:55;;;;;;;12.35;7.70;;;589.00;2432.00;;;;;;5079893;28;20425;-73
2023/05/22 07:55:21;;;;;;;11.35;6.95;;;589.00;2432.00;;;;;;5099125;28;20024;-73
2023/05/22 07:57:46;;;;;;;12.80;6.72;;;589.10;2432.00;;;;;;5109672;28;20032;-73
2023/05/22 08:00:13;;;;;;;18.58;8.52;;;589.20;2355.20;;;;;;5101914;28;20055;-73
2023/05/22 08:02:40;;;;;;;11.57;6.65;;;589.20;2432.00;;;;;;5097322;28;20031;-72
2023/05/22 08:05:06;;;;;;;11.70;6.43;;;589.40;2432.00;;;;;;5101636;28;20026;-72
2023/05/22 08:07:32;;;;;;;10.90;6.75;;;589.30;2406.40;;;;;;5096142;28;20027;-72
2023/05/22 08:09:58;;;;;;;10.55;6.03;;;589.30;2201.60;;;;;;5103279;28;20024;-72
2023/05/22 08:12:24;;;;;;;10.90;6.18;;;589.30;2124.80;;;;;;5097274;28;20393;-73
2023/05/22 08:14:49;;;;;;;13.00;6.43;;;589.30;2278.40;;;;;;5100924;28;20028;-72
2023/05/22 08:17:15;;;;;;;12.73;6.32;;;589.30;2304.00;;;;;;5100188;28;20051;-72
2023/05/22 08:19:41;;;;;;;11.45;7.13;;;589.50;2252.80;;;;;;5101206;28;20099;-72
2023/05/22 08:22:07;;;;;;;11.68;5.95;;;589.50;2380.80;;;;;;5094953;28;20028;-72
2023/05/22 08:24:32;;;;;;;14.25;6.57;;;589.50;2176.00;;;;;;5097446;28;20030;-73
2023/05/22 08:26:59;;;;;;;10.90;6.38;;;589.50;2432.00;;;;;;5098386;28;20081;-73
2023/05/22 08:29:25;;;;;;;16.50;6.78;;;589.70;2432.00;;;;;;5101883;28;20090;-72
2023/05/22 08:31:52;;;;;;;12.52;7.20;;;589.70;2355.20;;;;;;5100104;28;20020;-72
2023/05/22 08:34:18;;;;;;;13.77;6.85;;;589.70;2252.80;;;;;;5100081;28;20473;-74
2023/05/22 08:36:44;;;;;;;17.65;7.22;;;589.70;2432.00;;;;;;5104997;28;20054;-72
2023/05/22 08:39:10;;;;;;;13.20;6.68;;;589.70;2252.80;;;;;;5099731;28;20032;-73
2023/05/22 08:41:36;;;;;;;11.35;6.30;;;614.40;2252.80;;;;;;5098908;28;20116;-73
2023/05/22 08:44:03;;;;;;;12.05;6.35;;;614.40;2432.00;;;;;;5100061;28;20050;-72
2023/05/22 08:46:31;;;;;;;10.80;6.38;;;614.40;2201.60;;;;;;5103071;28;20043;-73
2023/05/22 08:48:57;;;;;;;9.40;6.00;;;614.40;2252.80;;;;;;5106379;28;20031;-73
2023/05/22 08:51:28;;;;;;;10.40;6.40;;;614.40;2227.20;;;;;;5095778;28;20028;-73
2023/05/22 08:53:55;;;;;;;10.60;5.72;;;614.60;2176.00;;;;;;5093775;28;20024;-72
2023/05/22 08:56:22;;;;;;;12.23;5.50;;;614.60;2048.00;;;;;;5102428;28;20028;-73
2023/05/22 08:58:50;;;;;;;7.93;5.88;;;614.60;2022.40;;;;;;5101080;28;20024;-73
2023/05/22 09:01:16;;;;;;;11.27;6.03;;;614.60;1971.20;;;;;;5097863;28;20024;-74
2023/05/22 09:03:42;;;;;;;11.18;6.15;;;614.60;1945.60;;;;;;5069499;28;20039;-72
2023/05/22 09:06:08;;;;;;;7.55;5.47;;;614.60;1945.60;;;;;;5100493;28;20030;-71
2023/05/22 09:08:33;;;;;;;9.07;6.18;;;614.60;1945.60;;;;;;5103713;28;20122;-72
2023/05/22 09:10:59;;;;;;;11.30;6.15;;;614.80;2278.40;;;;;;5102795;28;20115;-73
2023/05/22 09:13:28;;;;;;;8.40;5.43;;;614.80;2124.80;;;;;;5098885;28;20063;-70
2023/05/22 09:16:07;;;;;;;7.80;5.78;;;614.90;1920.00;;;;;;5099064;28;20103;-70
2023/05/22 09:18:34;;;;;;;8.80;6.00;;;615.00;2073.60;;;;;;5099009;28;20016;-72
2023/05/22 09:21:01;;;;;;;14.10;5.97;;;615.10;2150.40;;;;;;5101346;28;20097;-72
2023/05/22 09:23:27;;;;;;;10.07;6.05;;;615.30;2150.40;;;;;;5082868;28;20012;-73
2023/05/22 09:25:55;;;;;;;9.98;5.53;;;640.10;1920.00;;;;;;5097793;28;20112;-71
2023/05/22 09:28:22;;;;;;;74.20;19.02;;;640.00;1792.00;;;;;;5094147;28;20111;-71
2023/05/22 09:30:49;;;;;;;7.90;5.88;;;640.20;2329.60;;;;;;5095467;28;20020;-72
2023/05/22 09:33:16;;;;;;;11.65;5.90;;;;;;;;;;5099871;28;20119;-75
2023/05/22 09:35:42;;;;;;;8.68;5.13;;;640.50;1817.60;;;;;;5099626;28;20028;-73
2023/05/22 09:38:09;;;;;;;7.07;5.55;;;640.60;1843.20;;;;;;5101158;28;20020;-74
2023/05/22 09:40:37;;;;;;;12.18;5.85;;;640.60;1766.40;;;;;;5080985;28;20115;-71
2023/05/22 09:43:11;;;;;;;15.60;6.75;;;640.60;1971.20;;;;;;5105493;28;20047;-72
2023/05/22 09:45:37;;;;;;;12.50;5.97;;;640.80;1894.40;;;;;;5100674;28;20030;-72
2023/05/22 09:48:04;;;;;;;7.68;5.97;;;;;;;;;;5096457;28;20123;-71
2023/05/22 09:50:31;;;;;;;9.65;6.10;;;665.70;1740.80;;;;;;5101159;28;20024;-73
2023/05/22 09:53:04;;;;;;;7.65;5.55;;;665.80;1664.00;;;;;;5097957;28;20015;-73
2023/05/22 09:55:31;;;;;;;10.60;5.43;;;665.90;1689.60;;;;;;5097671;28;20416;-71
2023/05/22 09:57:57;;;;;;;11.77;5.57;;;666.00;1638.40;;;;;;5102346;28;20020;-72
2023/05/22 10:00:24;;;;;;;6.95;5.50;;;666.20;1664.00;;;;;;5103500;28;20067;-72
2023/05/22 10:03:02;;;;;;;8.18;5.40;;;666.30;1638.40;;;;;;5098810;28;20436;-73
2023/05/22 10:05:30;;;;;;;12.82;5.68;;;;;;;;;;5089571;28;20023;-72
2023/05/22 10:08:00;;;;;;;9.30;5.72;;;;;;;;;;5099664;28;20050;-71
2023/05/22 10:10:26;;;;;;;12.02;5.10;;;691.30;1587.20;;;;;;5102828;28;20023;-73
2023/05/22 10:13:02;;;;;;;9.88;5.22;;;691.30;1536.00;;;;;;5102754;28;20482;-72
2023/05/22 10:15:28;;;;;;;7.50;5.43;;;691.50;1587.20;;;;;;5093447;28;20025;-72
2023/05/22 10:17:55;;;;;;;10.45;5.55;;;691.50;1587.20;;;;;;5097110;28;20035;-72
2023/05/22 10:20:21;;;;;;;12.50;6.05;;;691.60;1561.60;;;;;;5093439;28;20430;-71
2023/05/22 10:22:50;;;;;;;8.10;5.10;;;691.60;1536.00;;;;;;5098078;28;20059;-71
2023/05/22 10:25:17;;;;;;;8.25;4.95;;;691.50;1612.80;;;;;;5094812;28;20481;-72
2023/05/22 10:27:43;;;;;;;13.05;6.35;;;691.70;1536.00;;;;;;5094118;28;20036;-71
2023/05/22 10:30:09;;;;;;;11.05;5.60;;;691.80;1561.60;;;;;;5100777;28;20019;-72
2023/05/22 10:32:41;;;;;;;22.38;7.18;;;691.70;1561.60;;;;;;5094750;28;20028;-72
2023/05/22 10:35:24;;;;;;;8.63;5.13;;;691.90;1536.00;;;;;;5100418;28;20488;-72
2023/05/22 10:37:52;;;;;;;6.75;5.00;;;716.80;1459.20;;;;;;5099893;28;20148;-73
2023/05/22 10:40:27;;;;;;;7.70;4.60;;;716.90;1510.40;;;;;;5099281;28;20028;-74
2023/05/22 10:42:56;;;;;;;10.18;5.55;;;716.80;1433.60;;;;;;5097620;28;20047;-73
2023/05/22 10:45:25;;;;;;;7.30;5.03;;;716.80;1484.80;;;;;;5102545;28;20032;-73
2023/05/22 10:48:11;;;;;;;8.10;5.32;;;717.00;1484.80;;;;;;5101692;28;20036;-75
2023/05/22 10:50:38;;;;;;;6.82;4.60;;;716.80;1484.80;;;;;;5102008;28;20463;-72
2023/05/22 10:53:21;;;;;;;13.65;6.20;;;717.10;1484.80;;;;;;5092377;28;20028;-72
2023/05/22 10:55:58;;;;;;;8.32;5.05;;;717.40;1484.80;;;;;;5099984;28;20106;-73
2023/05/22 10:58:29;;;;;;;12.02;5.15;;;717.40;1433.60;;;;;;5100017;28;20477;-73
2023/05/22 11:01:10;;;;;;;7.07;4.15;;;717.50;1382.40;;;;;;5094673;28;20028;-72
2023/05/22 11:03:52;;;;;;;7.35;4.53;;;717.40;1356.80;;;;;;5098379;28;20028;-72
2023/05/22 11:06:40;;;;;;;6.97;4.45;;;717.40;1280.00;;;;;;5102010;28;20024;-72
2023/05/22 11:09:27;;;;;;;6.10;3.85;;;717.60;1305.60;;;;;;5097744;28;20031;-72
2023/05/22 11:12:27;;;;;;;9.52;4.40;;;717.60;1280.00;;;;;;5097642;28;20171;-72
2023/05/22 11:14:54;;;;;;;10.43;4.60;;;717.60;1331.20;;;;;;5102802;28;20047;-72
2023/05/22 11:17:22;;;;;;;7.78;4.93;;;717.40;1331.20;;;;;;5106136;28;20024;-72
2023/05/22 11:20:14;;;;;;;9.35;4.95;;;717.30;1433.60;;;;;;5101538;28;20099;-72
2023/05/22 11:22:42;;;;;;;9.05;4.95;;;717.50;1305.60;;;;;;5076872;28;20113;-72
2023/05/22 11:25:16;;;;;;;8.05;4.82;;;717.50;1280.00;;;;;;5100632;28;20031;-73
2023/05/22 11:27:43;;;;;;;6.78;4.97;;;742.40;1305.60;;;;;;5104300;28;20032;-71
2023/05/22 11:30:10;;;;;;;7.95;5.35;;;717.60;1356.80;;;;;;5101014;28;20107;-74
2023/05/22 11:32:37;;;;;;;8.50;4.95;;;717.50;1331.20;;;;;;5105044;28;20038;-71
2023/05/22 11:35:09;;;;;;;8.70;5.68;;;742.40;1382.40;;;;;;5105293;28;20047;-72
2023/05/22 11:37:39;;;;;;;11.82;5.50;;;742.40;1408.00;;;;;;5097020;28;20211;-75
2023/05/22 11:40:05;;;;;;;8.77;5.13;;;717.70;1356.80;;;;;;5101720;28;20027;-75
2023/05/22 11:42:31;;;;;;;9.98;5.45;;;717.10;1356.80;;;;;;5101881;28;20031;-71
2023/05/22 11:44:58;;;;;;;9.20;5.13;;;717.20;1408.00;;;;;;5102920;28;20095;-72
2023/05/22 11:47:25;;;;;;;8.95;5.70;;;717.40;1408.00;;;;;;5098472;28;20060;-71
2023/05/22 11:49:52;;;;;;;7.60;5.05;;;717.10;1408.00;;;;;;5097171;28;20019;-71
2023/05/22 11:52:18;;;;;;;11.13;6.07;;;717.10;1433.60;;;;;;5105341;28;20073;-71
2023/05/22 11:54:47;;;;;;;7.72;4.72;;;717.10;1408.00;;;;;;5102085;28;20024;-72
2023/05/22 11:57:14;;;;;;;9.55;5.13;;;716.90;1382.40;;;;;;5102925;28;20078;-72
2023/05/22 11:59:46;;;;;;;8.35;4.97;;;717.50;1382.40;;;;;;5100899;28;20016;-71
2023/05/22 12:02:15;;;;;;;13.40;5.43;;;717.60;1331.20;;;;;;5100059;28;20028;-73
2023/05/22 12:04:40;;;;;;;8.13;5.70;;;742.40;1356.80;;;;;;5104510;28;20020;-71
2023/05/22 12:07:07;;;;;;;7.80;5.45;;;742.50;1382.40;;;;;;5102269;28;20042;-71
2023/05/22 12:09:33;;;;;;;9.13;4.82;;;742.90;1356.80;;;;;;5104276;28;20422;-73
2023/05/22 12:11:59;;;;;;;7.05;5.38;;;742.90;1331.20;;;;;;5100689;28;20036;-71